createdAt,value
2023-02-11T00:01:16.027Z,103683.74
2023-02-11T00:03:43.771Z,103678.80
2023-02-11T00:06:12.271Z,103684.23
2023-02-11T00:08:40.458Z,103685.41
2023-02-11T00:11:08.851Z,103682.99
2023-02-11T00:13:36.501Z,103693.95
2023-02-11T00:16:09.394Z,103678.58
2023-02-11T00:18:37.683Z,103685.90
2023-02-11T00:21:17.064Z,103683.28
2023-02-11T00:23:45.543Z,103679.03
2023-02-11T00:26:16.244Z,103672.72
2023-02-11T00:28:44.568Z,103669.09
2023-02-11T00:31:13.581Z,103678.87
2023-02-11T00:33:42.021Z,103674.55
2023-02-11T00:36:14.553Z,103665.43
2023-02-11T00:38:45.420Z,103660.91
2023-02-11T00:41:14.528Z,103657.91
2023-02-11T00:43:42.700Z,103663.83
2023-02-11T00:46:11.367Z,103669.71
2023-02-11T00:48:39.228Z,103666.77
2023-02-11T00:51:07.170Z,103665.27
2023-02-11T00:53:35.773Z,103655.95
2023-02-11T00:56:03.839Z,103658.43
2023-02-11T00:58:31.756Z,103652.12
2023-02-11T01:00:59.695Z,103653.07
2023-02-11T01:03:27.746Z,103646.40
2023-02-11T01:05:55.415Z,103638.32
2023-02-11T01:08:23.399Z,103647.70
2023-02-11T01:11:03.096Z,103642.57
2023-02-11T01:13:32.327Z,103633.19
2023-02-11T01:16:00.127Z,103633.19
2023-02-11T01:18:28.483Z,103629.98
2023-02-11T01:20:56.378Z,103626.38
2023-02-11T01:23:24.125Z,103629.39
2023-02-11T01:25:53.079Z,103625.80
2023-02-11T01:28:30.146Z,103620.73
2023-02-11T01:30:58.489Z,103621.09
2023-02-11T01:33:26.205Z,103621.77
2023-02-11T01:35:53.972Z,103620.59
2023-02-11T01:38:26.771Z,103613.34
2023-02-11T01:41:00.859Z,103613.21
2023-02-11T01:43:45.989Z,103615.66
2023-02-11T01:46:32.803Z,103613.83
2023-02-11T01:49:22.532Z,103623.90
2023-02-11T01:52:10.994Z,103615.27
2023-02-11T01:55:02.400Z,103613.77
2023-02-11T01:57:32.642Z,103615.40
2023-02-11T02:00:22.631Z,103622.04
2023-02-11T02:03:03.480Z,103617.72
2023-02-11T02:06:19.340Z,103620.83
2023-02-11T02:09:00.395Z,103610.72
2023-02-11T02:11:28.329Z,103612.29
2023-02-11T02:13:56.124Z,103607.09
2023-02-11T02:16:30.830Z,103607.95
2023-02-11T02:19:38.850Z,103610.46
2023-02-11T02:22:28.102Z,103606.37
2023-02-11T02:25:16.968Z,103606.37
2023-02-11T02:28:13.740Z,103601.08
2023-02-11T02:31:06.290Z,103598.27
2023-02-11T02:33:51.272Z,103598.88
2023-02-11T02:36:29.300Z,103592.80
2023-02-11T02:39:03.099Z,103591.89
2023-02-11T02:41:36.286Z,103596.86
2023-02-11T02:44:04.559Z,103596.23
2023-02-11T02:46:33.917Z,103599.24
2023-02-11T02:49:02.270Z,103600.13
2023-02-11T02:51:48.082Z,103598.66
2023-02-11T02:54:53.699Z,103600.65
2023-02-11T02:57:41.469Z,103594.24
2023-02-11T03:00:34.228Z,103582.05
2023-02-11T03:03:25.482Z,103578.38
2023-02-11T03:05:59.757Z,103579.36
2023-02-11T03:08:44.694Z,103579.66
2023-02-11T03:11:13.568Z,103568.67
2023-02-11T03:13:42.789Z,103576.39
2023-02-11T03:16:20.459Z,103567.59
2023-02-11T03:18:54.004Z,103551.11
2023-02-11T03:21:23.690Z,103552.62
2023-02-11T03:23:57.440Z,103550.45
2023-02-11T03:26:36.910Z,103553.46
2023-02-11T03:29:16.527Z,103551.38
2023-02-11T03:31:47.103Z,103555.07
2023-02-11T03:34:23.099Z,103559.84
2023-02-11T03:37:16.828Z,103568.12
2023-02-11T03:39:56.727Z,103563.18
2023-02-11T03:42:29.971Z,103559.16
2023-02-11T03:45:05.240Z,103547.05
2023-02-11T03:47:37.207Z,103541.40
2023-02-11T03:50:09.449Z,103541.82
2023-02-11T03:52:39.320Z,103536.85
2023-02-11T03:55:13.601Z,103531.52
2023-02-11T03:57:41.397Z,103529.79
2023-02-11T04:00:10.496Z,103528.41
2023-02-11T04:02:39.387Z,103528.77
2023-02-11T04:05:09.163Z,103530.90
2023-02-11T04:07:36.978Z,103527.89
2023-02-11T04:10:05.630Z,103530.80
2023-02-11T04:12:33.470Z,103534.14
2023-02-11T04:15:01.210Z,103539.41
2023-02-11T04:17:28.989Z,103538.42
2023-02-11T04:19:56.652Z,103540.91
2023-02-11T04:22:24.388Z,103541.04
2023-02-11T04:24:52.162Z,103540.22
2023-02-11T04:27:19.921Z,103547.80
2023-02-11T04:29:47.568Z,103545.16
2023-02-11T04:32:15.796Z,103541.66
2023-02-11T04:34:43.619Z,103538.98
2023-02-11T04:37:11.287Z,103539.44
2023-02-11T04:39:39.215Z,103545.23
2023-02-11T04:42:07.040Z,103543.91
2023-02-11T04:44:34.920Z,103550.45
2023-02-11T04:47:02.714Z,103554.48
2023-02-11T04:49:30.502Z,103555.03
2023-02-11T04:51:58.185Z,103558.47
2023-02-11T04:54:25.915Z,103556.02
2023-02-11T04:56:53.621Z,103566.48
2023-02-11T04:59:21.348Z,103571.48
2023-02-11T05:01:49.052Z,103563.30
2023-02-11T05:04:17.776Z,103569.16
2023-02-11T05:06:45.572Z,103569.84
2023-02-11T05:09:14.093Z,103568.87
2023-02-11T05:11:42.046Z,103577.43
2023-02-11T05:14:09.783Z,103584.23
2023-02-11T05:16:37.614Z,103582.27
2023-02-11T05:19:05.553Z,103581.42
2023-02-11T05:21:33.419Z,103592.12
2023-02-11T05:24:01.150Z,103585.97
2023-02-11T05:26:28.921Z,103590.22
2023-02-11T05:28:57.340Z,103592.84
2023-02-11T05:31:25.066Z,103593.81
2023-02-11T05:33:52.894Z,103596.95
2023-02-11T05:36:20.601Z,103596.50
2023-02-11T05:38:48.347Z,103598.46
2023-02-11T05:41:16.078Z,103600.78
2023-02-11T05:43:43.902Z,103597.71
2023-02-11T05:46:11.684Z,103607.32
2023-02-11T05:48:39.417Z,103596.63
2023-02-11T05:51:07.119Z,103590.22
2023-02-11T05:53:34.796Z,103601.66
2023-02-11T05:56:02.660Z,103605.78
2023-02-11T05:58:30.399Z,103601.53
2023-02-11T06:00:58.172Z,103605.85
2023-02-11T06:03:25.931Z,103617.42
2023-02-11T06:05:53.608Z,103623.73
2023-02-11T06:08:21.371Z,103615.98
2023-02-11T06:10:49.140Z,103611.18
2023-02-11T06:13:19.683Z,103607.88
2023-02-11T06:15:57.374Z,103611.18
2023-02-11T06:18:25.369Z,103604.73
2023-02-11T06:20:53.331Z,103589.56
2023-02-11T06:23:21.084Z,103581.26
2023-02-11T06:25:49.420Z,103577.59
2023-02-11T06:28:17.542Z,103579.40
2023-02-11T06:30:45.593Z,103578.05
2023-02-11T06:33:13.277Z,103583.32
2023-02-11T06:35:41.224Z,103581.00
2023-02-11T06:38:08.911Z,103575.70
2023-02-11T06:40:36.673Z,103584.59
2023-02-11T06:43:04.339Z,103572.89
2023-02-11T06:45:32.057Z,103570.86
2023-02-11T06:47:59.879Z,103557.91
2023-02-11T06:50:27.608Z,103548.30
2023-02-11T06:52:55.256Z,103542.48
2023-02-11T06:55:22.914Z,103535.97
2023-02-11T06:57:50.663Z,103536.23
2023-02-11T07:00:18.734Z,103541.53
2023-02-11T07:02:46.505Z,103530.12
2023-02-11T07:05:14.342Z,103529.23
2023-02-11T07:07:41.988Z,103518.61
2023-02-11T07:10:10.448Z,103509.02
2023-02-11T07:12:38.780Z,103506.34
2023-02-11T07:15:07.349Z,103514.09
2023-02-11T07:17:36.697Z,103509.77
2023-02-11T07:20:05.289Z,103515.73
2023-02-11T07:22:32.993Z,103520.41
2023-02-11T07:25:00.732Z,103539.47
2023-02-11T07:27:28.436Z,103539.34
2023-02-11T07:29:56.046Z,103547.05
2023-02-11T07:32:23.796Z,103552.68
2023-02-11T07:34:51.725Z,103560.79
2023-02-11T07:37:20.029Z,103558.27
2023-02-11T07:39:47.810Z,103547.64
2023-02-11T07:42:15.579Z,103556.48
2023-02-11T07:44:43.270Z,103554.25
2023-02-11T07:47:10.974Z,103543.13
2023-02-11T07:49:38.731Z,103532.38
2023-02-11T07:52:06.569Z,103517.95
2023-02-11T07:54:34.267Z,103518.57
2023-02-11T07:57:01.949Z,103524.82
2023-02-11T07:59:29.661Z,103553.92
2023-02-11T08:01:57.489Z,103564.45
2023-02-11T08:04:25.175Z,103592.37
2023-02-11T08:06:55.499Z,103601.80
2023-02-11T08:09:25.013Z,103599.15
2023-02-11T08:11:52.747Z,103606.34
2023-02-11T08:14:21.705Z,103600.72
2023-02-11T08:16:49.410Z,103600.75
2023-02-11T08:19:18.496Z,103600.65
2023-02-11T08:21:46.243Z,103612.16
2023-02-11T08:24:13.992Z,103610.76
2023-02-11T08:26:42.209Z,103610.04
2023-02-11T08:29:12.862Z,103611.93
2023-02-11T08:31:43.162Z,103617.16
2023-02-11T08:34:12.637Z,103622.59
2023-02-11T08:36:41.416Z,103622.46
2023-02-11T08:39:19.668Z,103610.72
2023-02-11T08:41:50.245Z,103618.57
2023-02-11T08:44:19.406Z,103622.52
2023-02-11T08:46:48.157Z,103615.95
2023-02-11T08:49:16.421Z,103614.58
2023-02-11T08:51:44.937Z,103615.17
2023-02-11T08:54:13.210Z,103618.73
2023-02-11T08:56:41.201Z,103607.68
2023-02-11T08:59:10.372Z,103611.08
2023-02-11T09:01:38.250Z,103601.01
2023-02-11T09:04:06.511Z,103599.51
2023-02-11T09:06:34.284Z,103604.41
2023-02-11T09:09:02.117Z,103607.62
2023-02-11T09:11:33.200Z,103611.70
2023-02-11T09:14:01.872Z,103605.59
2023-02-11T09:16:34.921Z,103594.24
2023-02-11T09:19:04.087Z,103586.72
2023-02-11T09:21:32.320Z,103581.42
2023-02-11T09:24:00.297Z,103575.51
2023-02-11T09:26:31.488Z,103560.56
2023-02-11T09:28:59.762Z,103556.18
2023-02-11T09:31:29.919Z,103560.59
2023-02-11T09:34:01.745Z,103564.09
2023-02-11T09:36:35.214Z,103557.16
2023-02-11T09:39:05.053Z,103549.64
2023-02-11T09:41:51.316Z,103550.55
2023-02-11T09:44:23.459Z,103547.09
2023-02-11T09:47:00.928Z,103548.59
2023-02-11T09:49:45.495Z,103553.50
2023-02-11T09:52:31.575Z,103563.80
2023-02-11T09:55:03.331Z,103565.56
2023-02-11T09:57:37.297Z,103571.87
2023-02-11T10:00:18.127Z,103587.05
2023-02-11T10:03:10.560Z,103584.40
2023-02-11T10:06:05.628Z,103584.17
2023-02-11T10:09:10.684Z,103588.87
2023-02-11T10:11:58.399Z,103581.91
2023-02-11T10:14:50.717Z,103588.55
2023-02-11T10:17:36.240Z,103592.15
2023-02-11T10:20:34.633Z,103589.11
2023-02-11T10:23:11.631Z,103592.77
2023-02-11T10:25:45.384Z,103581.20
2023-02-11T10:28:22.245Z,103593.78
2023-02-11T10:31:07.066Z,103586.30
2023-02-11T10:33:50.185Z,103592.84
2023-02-11T10:36:19.458Z,103581.55
2023-02-11T10:38:47.564Z,103581.20
2023-02-11T10:41:36.841Z,103570.24
2023-02-11T10:44:08.404Z,103570.24
2023-02-11T10:46:41.225Z,103568.60
2023-02-11T10:49:09.081Z,103562.03
2023-02-11T10:51:36.897Z,103553.56
2023-02-11T10:54:20.488Z,103552.68
2023-02-11T10:56:59.710Z,103553.37
2023-02-11T10:59:41.283Z,103551.38
2023-02-11T11:02:39.899Z,103552.13
2023-02-11T11:05:21.045Z,103552.19
2023-02-11T11:08:00.885Z,103553.27
2023-02-11T11:10:30.448Z,103555.49
2023-02-11T11:12:58.398Z,103551.08
2023-02-11T11:15:31.916Z,103543.66
2023-02-11T11:18:22.627Z,103545.09
2023-02-11T11:21:01.302Z,103539.63
2023-02-11T11:23:31.912Z,103544.63
2023-02-11T11:26:12.739Z,103542.45
2023-02-11T11:28:53.591Z,103528.45
2023-02-11T11:31:26.057Z,103511.91
2023-02-11T11:33:56.784Z,103508.01
2023-02-11T11:36:33.661Z,103505.82
2023-02-11T11:39:05.575Z,103508.53
2023-02-11T11:41:36.005Z,103510.79
2023-02-11T11:44:35.719Z,103506.54
2023-02-11T11:47:12.359Z,103496.27
2023-02-11T11:49:57.047Z,103505.79
2023-02-11T11:52:47.643Z,103498.79
2023-02-11T11:55:45.872Z,103495.36
2023-02-11T11:58:24.245Z,103493.10
2023-02-11T12:01:03.177Z,103497.84
2023-02-11T12:03:48.132Z,103492.80
2023-02-11T12:06:31.050Z,103484.96
2023-02-11T12:09:01.689Z,103486.37
2023-02-11T12:11:38.255Z,103484.50
2023-02-11T12:14:17.280Z,103483.45
2023-02-11T12:16:50.999Z,103473.52
2023-02-11T12:20:01.477Z,103463.84
2023-02-11T12:22:37.053Z,103465.63
2023-02-11T12:25:04.961Z,103467.43
2023-02-11T12:27:51.802Z,103465.37
2023-02-11T12:30:29.989Z,103460.66
2023-02-11T12:33:18.898Z,103460.01
2023-02-11T12:36:24.214Z,103467.37
2023-02-11T12:39:13.302Z,103455.37
2023-02-11T12:42:44.838Z,103454.71
2023-02-11T12:45:12.448Z,103460.14
2023-02-11T12:48:06.122Z,103464.59
2023-02-11T12:50:57.945Z,103450.49
2023-02-11T12:53:37.587Z,103447.32
2023-02-11T12:56:12.666Z,103446.24
2023-02-11T12:58:45.408Z,103448.37
2023-02-11T13:01:33.665Z,103442.35
2023-02-11T13:04:12.331Z,103428.23
2023-02-11T13:06:50.257Z,103429.07
2023-02-11T13:09:29.247Z,103419.33
2023-02-11T13:12:00.104Z,103419.36
2023-02-11T13:14:27.841Z,103420.63
2023-02-11T13:16:59.698Z,103419.49
2023-02-11T13:19:35.909Z,103419.13
2023-02-11T13:22:09.678Z,103415.17
2023-02-11T13:25:03.339Z,103409.59
2023-02-11T13:27:41.644Z,103405.59
2023-02-11T13:30:52.316Z,103407.66
2023-02-11T13:33:33.996Z,103393.89
2023-02-11T13:36:04.476Z,103391.04
2023-02-11T13:38:33.888Z,103383.33
2023-02-11T13:41:05.121Z,103375.64
2023-02-11T13:43:36.506Z,103370.77
2023-02-11T13:46:13.133Z,103363.87
2023-02-11T13:48:48.629Z,103354.52
2023-02-11T13:51:20.151Z,103360.60
2023-02-11T13:53:51.902Z,103363.45
2023-02-11T13:56:29.463Z,103358.96
2023-02-11T13:59:01.480Z,103354.48
2023-02-11T14:02:08.234Z,103352.45
2023-02-11T14:04:54.756Z,103341.86
2023-02-11T14:07:52.420Z,103345.52
2023-02-11T14:10:44.892Z,103341.86
2023-02-11T14:13:31.417Z,103351.64
2023-02-11T14:16:28.149Z,103353.63
2023-02-11T14:19:03.660Z,103353.63
2023-02-11T14:21:35.949Z,103345.10
2023-02-11T14:24:03.643Z,103340.59
2023-02-11T14:26:55.759Z,103346.67
2023-02-11T14:29:38.443Z,103336.50
2023-02-11T14:32:11.922Z,103340.98
2023-02-11T14:34:51.360Z,103334.08
2023-02-11T14:37:37.922Z,103341.01
2023-02-11T14:40:29.241Z,103342.65
2023-02-11T14:42:59.314Z,103345.49
2023-02-11T14:45:29.938Z,103338.20
2023-02-11T14:48:18.768Z,103352.06
2023-02-11T14:50:53.154Z,103341.47
2023-02-11T14:53:24.990Z,103350.43
2023-02-11T14:55:55.230Z,103348.40
2023-02-11T14:58:26.808Z,103350.82
2023-02-11T15:00:56.577Z,103352.45
2023-02-11T15:03:37.481Z,103365.44
2023-02-11T15:06:23.633Z,103354.84
2023-02-11T15:09:12.908Z,103356.02
2023-02-11T15:11:43.604Z,103361.71
2023-02-11T15:14:19.917Z,103356.38
2023-02-11T15:16:48.633Z,103354.35
2023-02-11T15:19:37.935Z,103351.87
2023-02-11T15:22:08.527Z,103354.68
2023-02-11T15:24:37.020Z,103356.25
2023-02-11T15:27:13.930Z,103363.97
2023-02-11T15:29:51.777Z,103364.75
2023-02-11T15:32:22.858Z,103361.87
2023-02-11T15:34:53.215Z,103360.20
2023-02-11T15:37:26.906Z,103356.51
2023-02-11T15:39:56.214Z,103366.19
2023-02-11T15:42:32.528Z,103366.16
2023-02-11T15:45:30.057Z,103373.02
2023-02-11T15:48:27.700Z,103379.50
2023-02-11T15:50:59.955Z,103370.08
2023-02-11T15:53:32.682Z,103376.52
2023-02-11T15:56:13.348Z,103374.07
2023-02-11T15:58:44.579Z,103376.85
2023-02-11T16:01:13.835Z,103377.60
2023-02-11T16:03:43.675Z,103374.30
2023-02-11T16:06:49.654Z,103370.18
2023-02-11T16:09:17.336Z,103378.23
2023-02-11T16:11:48.253Z,103384.66
2023-02-11T16:14:40.429Z,103383.81
2023-02-11T16:17:25.152Z,103386.63
2023-02-11T16:19:54.790Z,103380.12
2023-02-11T16:22:31.549Z,103382.97
2023-02-11T16:25:01.010Z,103379.30
2023-02-11T16:27:40.913Z,103381.73
2023-02-11T16:30:28.957Z,103380.45
2023-02-11T16:32:56.768Z,103369.88
2023-02-11T16:35:24.550Z,103371.52
2023-02-11T16:37:52.437Z,103377.51
2023-02-11T16:40:20.242Z,103377.11
2023-02-11T16:42:47.992Z,103388.82
2023-02-11T16:45:16.591Z,103396.50
2023-02-11T16:47:44.579Z,103401.38
2023-02-11T16:50:20.728Z,103395.69
2023-02-11T16:52:49.546Z,103406.22
2023-02-11T16:55:17.371Z,103411.84
2023-02-11T16:57:45.308Z,103413.02
2023-02-11T17:00:17.296Z,103416.65
2023-02-11T17:02:45.218Z,103414.16
2023-02-11T17:05:24.180Z,103421.45
2023-02-11T17:07:52.704Z,103422.99
2023-02-11T17:10:23.775Z,103418.09
2023-02-11T17:12:52.549Z,103424.10
2023-02-11T17:15:20.293Z,103428.48
2023-02-11T17:17:48.066Z,103433.75
2023-02-11T17:20:16.541Z,103439.02
2023-02-11T17:22:44.381Z,103435.74
2023-02-11T17:25:12.567Z,103437.41
2023-02-11T17:27:40.486Z,103439.90
2023-02-11T17:30:09.093Z,103446.93
2023-02-11T17:32:38.024Z,103446.27
2023-02-11T17:35:09.281Z,103446.34
2023-02-11T17:37:37.177Z,103451.73
2023-02-11T17:40:05.055Z,103446.96
2023-02-11T17:45:00.463Z,103443.36
2023-02-11T17:47:28.144Z,103454.80
2023-02-11T17:49:55.954Z,103450.33
2023-02-11T17:52:25.385Z,103455.10
2023-02-11T17:54:53.128Z,103457.52
2023-02-11T17:57:21.265Z,103470.93
2023-02-11T17:59:49.074Z,103468.80
2023-02-11T18:02:16.930Z,103459.02
2023-02-11T18:04:45.665Z,103475.57
2023-02-11T18:07:13.775Z,103475.12
2023-02-11T18:09:42.053Z,103474.72
2023-02-11T18:12:10.457Z,103480.84
2023-02-11T18:14:42.088Z,103484.89
2023-02-11T18:17:10.053Z,103495.00
2023-02-11T18:19:38.718Z,103482.80
2023-02-11T18:22:06.570Z,103492.91
2023-02-11T18:24:34.284Z,103483.48
2023-02-11T18:27:02.372Z,103491.10
2023-02-11T18:29:30.082Z,103488.95
2023-02-11T18:31:58.322Z,103492.15
2023-02-11T18:34:27.106Z,103486.73
2023-02-11T18:36:55.311Z,103486.16
2023-02-11T18:39:25.500Z,103485.64
2023-02-11T18:41:57.798Z,103485.48
2023-02-11T18:44:26.059Z,103483.35
2023-02-11T18:46:54.573Z,103487.73
2023-02-11T18:49:22.336Z,103499.38
2023-02-11T18:51:50.148Z,103508.60
2023-02-11T18:54:17.960Z,103503.23
2023-02-11T18:56:45.735Z,103505.07
2023-02-11T18:59:13.800Z,103515.92
2023-02-11T19:01:44.545Z,103513.34
2023-02-11T19:04:12.533Z,103531.62
2023-02-11T19:06:40.633Z,103529.59
2023-02-11T19:09:11.404Z,103531.20
2023-02-11T19:11:51.317Z,103517.30
2023-02-11T19:14:32.604Z,103525.38
2023-02-11T19:17:02.664Z,103539.05
2023-02-11T19:19:32.904Z,103534.76
2023-02-11T19:22:02.055Z,103536.16
2023-02-11T19:24:31.002Z,103528.65
2023-02-11T19:27:01.271Z,103531.26
2023-02-11T19:29:29.965Z,103525.77
2023-02-11T19:31:57.717Z,103529.56
2023-02-11T19:34:25.597Z,103521.29
2023-02-11T19:36:55.313Z,103524.72
2023-02-11T19:39:25.063Z,103536.59
2023-02-11T19:41:53.574Z,103531.88
2023-02-11T19:44:21.384Z,103530.80
2023-02-11T19:46:51.378Z,103530.94
2023-02-11T19:49:24.036Z,103530.21
2023-02-11T19:51:53.263Z,103532.41
2023-02-11T19:54:21.582Z,103533.78
2023-02-11T19:56:49.983Z,103528.32
2023-02-11T19:59:17.873Z,103527.70
2023-02-11T20:01:48.611Z,103527.50
2023-02-11T20:04:19.217Z,103527.66
2023-02-11T20:06:49.427Z,103540.77
2023-02-11T20:09:17.368Z,103542.67
2023-02-11T20:11:45.627Z,103545.78
2023-02-11T20:14:15.777Z,103537.08
2023-02-11T20:16:49.289Z,103540.09
2023-02-11T20:19:20.441Z,103537.51
2023-02-11T20:21:50.086Z,103544.34
2023-02-11T20:24:19.818Z,103543.42
2023-02-11T20:26:49.329Z,103555.98
2023-02-11T20:29:18.680Z,103547.88
2023-02-11T20:31:46.897Z,103544.60
2023-02-11T20:34:14.700Z,103537.67
2023-02-11T20:36:42.692Z,103541.70
2023-02-11T20:39:12.250Z,103529.95
2023-02-11T20:41:40.905Z,103538.39
2023-02-11T20:44:11.587Z,103540.29
2023-02-11T20:46:42.965Z,103538.65
2023-02-11T20:49:20.728Z,103540.29
2023-02-11T20:51:48.564Z,103531.82
2023-02-11T20:54:19.831Z,103536.16
2023-02-11T20:56:49.130Z,103540.55
2023-02-11T20:59:17.878Z,103529.04
2023-02-11T21:01:49.879Z,103533.78
2023-02-11T21:04:21.235Z,103526.39
2023-02-11T21:06:51.659Z,103524.36
2023-02-11T21:09:23.049Z,103531.06
2023-02-11T21:11:52.779Z,103528.97
2023-02-11T21:14:22.239Z,103529.69
2023-02-11T21:16:50.431Z,103532.77
2023-02-11T21:19:18.137Z,103530.64
2023-02-11T21:21:45.830Z,103538.26
2023-02-11T21:24:13.960Z,103536.16
2023-02-11T21:26:41.827Z,103533.26
2023-02-11T21:29:09.806Z,103546.89
2023-02-11T21:31:38.230Z,103535.15
2023-02-11T21:34:07.047Z,103533.84
2023-02-11T21:36:35.129Z,103536.55
2023-02-11T21:39:04.906Z,103536.07
2023-02-11T21:41:32.919Z,103540.09
2023-02-11T21:44:00.610Z,103544.08
2023-02-11T21:46:30.362Z,103531.85
2023-02-11T21:48:59.370Z,103545.13
2023-02-11T21:51:27.530Z,103552.29
2023-02-11T21:54:02.398Z,103551.83
2023-02-11T21:56:32.415Z,103557.48
2023-02-11T21:59:00.868Z,103558.27
2023-02-11T22:01:34.065Z,103556.63
2023-02-11T22:04:01.750Z,103554.19
2023-02-11T22:06:32.137Z,103548.56
2023-02-11T22:09:02.827Z,103555.69
2023-02-11T22:11:30.583Z,103555.85
2023-02-11T22:13:58.976Z,103555.46
2023-02-11T22:16:28.756Z,103563.11
2023-02-11T22:18:59.517Z,103552.13
2023-02-11T22:21:28.134Z,103552.29
2023-02-11T22:23:57.037Z,103561.18
2023-02-11T22:26:26.866Z,103565.11
2023-02-11T22:28:54.912Z,103566.94
2023-02-11T22:31:29.685Z,103565.92
2023-02-11T22:33:58.598Z,103563.96
2023-02-11T22:36:29.358Z,103564.35
2023-02-11T22:39:00.505Z,103563.38
2023-02-11T22:41:28.339Z,103565.23
2023-02-11T22:43:56.030Z,103565.47
2023-02-11T22:46:23.855Z,103554.67
2023-02-11T22:48:52.427Z,103559.13
2023-02-11T22:51:23.378Z,103554.02
2023-02-11T22:53:59.263Z,103552.55
2023-02-11T22:56:28.257Z,103552.65
2023-02-11T22:58:59.656Z,103559.32
2023-02-11T23:01:28.027Z,103557.42
2023-02-11T23:03:55.959Z,103561.05
2023-02-11T23:06:24.039Z,103568.87
2023-02-11T23:08:51.864Z,103575.08
2023-02-11T23:11:22.752Z,103586.82
2023-02-11T23:13:53.024Z,103580.77
2023-02-11T23:16:24.089Z,103586.88
2023-02-11T23:18:52.517Z,103585.28
2023-02-11T23:21:30.359Z,103592.21
2023-02-11T23:24:05.168Z,103601.08
2023-02-11T23:26:33.225Z,103606.41
2023-02-11T23:29:01.381Z,103587.80
2023-02-11T23:31:31.957Z,103586.33
2023-02-11T23:33:59.616Z,103594.18
2023-02-11T23:36:27.737Z,103594.47
2023-02-11T23:38:55.535Z,103592.34
2023-02-11T23:41:24.362Z,103587.54
2023-02-11T23:43:53.858Z,103586.16
2023-02-11T23:46:25.591Z,103586.27
2023-02-11T23:48:54.275Z,103589.70
2023-02-11T23:51:22.294Z,103580.05
2023-02-11T23:53:50.841Z,103587.38
2023-02-11T23:56:20.926Z,103588.87
2023-02-11T23:58:53.935Z,103584.56
